sensor_id;sensor_type;location;lat;lon;timestamp;temperature;humidity
25568;DHT22;13455;51.480;7.594;2022-12-07T11:58:04;6.60;99.90
25568;DHT22;13455;51.480;7.594;2022-12-07T12:00:36;6.60;99.90
25568;DHT22;13455;51.480;7.594;2022-12-07T12:03:09;6.60;99.90
25568;DHT22;13455;51.480;7.594;2022-12-07T12:05:36;6.60;99.90
25568;DHT22;13455;51.480;7.594;2022-12-07T12:08:21;6.60;99.90
25568;DHT22;13455;51.480;7.594;2022-12-07T12:19:16;6.60;99.90
25568;DHT22;13455;51.480;7.594;2022-12-07T12:21:47;6.60;99.90
25568;DHT22;13455;51.480;7.594;2022-12-07T12:24:20;6.50;99.90
25568;DHT22;13455;51.480;7.594;2022-12-07T12:26:55;6.50;99.90
25568;DHT22;13455;51.480;7.594;2022-12-07T12:29:28;6.50;99.90
25568;DHT22;13455;51.480;7.594;2022-12-07T12:32:18;6.50;99.90
25568;DHT22;13455;51.480;7.594;2022-12-07T12:42:47;6.60;99.90
25568;DHT22;13455;51.480;7.594;2022-12-07T12:45:18;6.60;99.90
25568;DHT22;13455;51.480;7.594;2022-12-07T13:18:38;6.60;99.90
25568;DHT22;13455;51.480;7.594;2022-12-07T13:23:37;6.80;99.90
25568;DHT22;13455;51.480;7.594;2022-12-07T13:31:41;6.70;99.90
25568;DHT22;13455;51.480;7.594;2022-12-07T13:34:37;6.60;99.90
25568;DHT22;13455;51.480;7.594;2022-12-07T13:40:11;6.50;99.90
25568;DHT22;13455;51.480;7.594;2022-12-07T13:42:41;6.50;99.90
25568;DHT22;13455;51.480;7.594;2022-12-07T13:45:28;6.50;99.90
25568;DHT22;13455;51.480;7.594;2022-12-07T13:48:49;6.50;99.90
25568;DHT22;13455;51.480;7.594;2022-12-07T13:51:26;6.60;99.90
25568;DHT22;13455;51.480;7.594;2022-12-07T13:54:01;6.50;99.90
25568;DHT22;13455;51.480;7.594;2022-12-07T13:56:34;6.60;99.90
25568;DHT22;13455;51.480;7.594;2022-12-07T13:59:00;6.50;99.90
25568;DHT22;13455;51.480;7.594;2022-12-07T14:01:26;6.50;99.90
25568;DHT22;13455;51.480;7.594;2022-12-07T14:03:52;6.40;99.90
25568;DHT22;13455;51.480;7.594;2022-12-07T14:06:26;6.50;99.90
25568;DHT22;13455;51.480;7.594;2022-12-07T14:09:20;6.50;99.90
25568;DHT22;13455;51.480;7.594;2022-12-07T14:11:48;6.50;99.90
25568;DHT22;13455;51.480;7.594;2022-12-07T14:14:19;6.50;99.90
25568;DHT22;13455;51.480;7.594;2022-12-07T14:17:02;6.50;99.90
25568;DHT22;13455;51.480;7.594;2022-12-07T14:19:57;6.40;99.90
25568;DHT22;13455;51.480;7.594;2022-12-07T14:22:35;6.40;99.90
25568;DHT22;13455;51.480;7.594;2022-12-07T14:27:40;6.40;99.90
25568;DHT22;13455;51.480;7.594;2022-12-07T14:30:17;6.40;99.90
25568;DHT22;13455;51.480;7.594;2022-12-07T14:32:43;6.40;99.90
25568;DHT22;13455;51.480;7.594;2022-12-07T14:35:15;6.40;99.90
25568;DHT22;13455;51.480;7.594;2022-12-07T14:37:42;6.40;99.90
25568;DHT22;13455;51.480;7.594;2022-12-07T14:40:17;6.40;99.90
25568;DHT22;13455;51.480;7.594;2022-12-07T14:42:45;6.40;99.90
25568;DHT22;13455;51.480;7.594;2022-12-07T14:45:16;6.40;99.90
25568;DHT22;13455;51.480;7.594;2022-12-07T14:47:43;6.30;99.90
25568;DHT22;13455;51.480;7.594;2022-12-07T14:50:12;6.20;99.90
25568;DHT22;13455;51.480;7.594;2022-12-07T14:52:39;6.20;99.90
25568;DHT22;13455;51.480;7.594;2022-12-07T14:55:07;6.20;99.90
25568;DHT22;13455;51.480;7.594;2022-12-07T14:57:37;6.10;99.90
25568;DHT22;13455;51.480;7.594;2022-12-07T15:00:03;6.10;99.90
25568;DHT22;13455;51.480;7.594;2022-12-07T15:02:29;6.00;99.90
25568;DHT22;13455;51.480;7.594;2022-12-07T15:04:55;6.00;99.90
25568;DHT22;13455;51.480;7.594;2022-12-07T15:07:21;6.00;99.90
25568;DHT22;13455;51.480;7.594;2022-12-07T15:09:48;6.00;99.90
25568;DHT22;13455;51.480;7.594;2022-12-07T15:12:14;5.90;99.90
25568;DHT22;13455;51.480;7.594;2022-12-07T15:14:39;5.90;99.90
25568;DHT22;13455;51.480;7.594;2022-12-07T15:17:05;5.80;99.90
25568;DHT22;13455;51.480;7.594;2022-12-07T15:19:31;5.70;99.90
25568;DHT22;13455;51.480;7.594;2022-12-07T15:21:57;5.70;99.90
25568;DHT22;13455;51.480;7.594;2022-12-07T15:24:23;5.70;99.90
25568;DHT22;13455;51.480;7.594;2022-12-07T15:26:49;5.60;99.90
25568;DHT22;13455;51.480;7.594;2022-12-07T15:29:15;5.60;99.90
25568;DHT22;13455;51.480;7.594;2022-12-07T15:31:42;5.50;99.90
25568;DHT22;13455;51.480;7.594;2022-12-07T15:34:07;5.40;99.90
25568;DHT22;13455;51.480;7.594;2022-12-07T15:36:35;5.40;99.90
25568;DHT22;13455;51.480;7.594;2022-12-07T15:39:01;5.40;99.90
25568;DHT22;13455;51.480;7.594;2022-12-07T15:41:27;5.20;99.90
25568;DHT22;13455;51.480;7.594;2022-12-07T15:43:53;5.20;99.90
25568;DHT22;13455;51.480;7.594;2022-12-07T15:46:39;5.30;99.90
25568;DHT22;13455;51.480;7.594;2022-12-07T15:49:14;5.40;99.90
25568;DHT22;13455;51.480;7.594;2022-12-07T15:51:40;5.10;99.90
25568;DHT22;13455;51.480;7.594;2022-12-07T15:54:06;5.40;99.90
25568;DHT22;13455;51.480;7.594;2022-12-07T15:56:31;5.20;99.90
25568;DHT22;13455;51.480;7.594;2022-12-07T15:58:57;5.20;99.90
25568;DHT22;13455;51.480;7.594;2022-12-07T16:01:23;5.20;99.90
25568;DHT22;13455;51.480;7.594;2022-12-07T16:03:48;5.40;99.90
25568;DHT22;13455;51.480;7.594;2022-12-07T16:06:17;5.10;99.90
25568;DHT22;13455;51.480;7.594;2022-12-07T16:08:46;4.90;99.90
25568;DHT22;13455;51.480;7.594;2022-12-07T16:11:13;4.90;99.90
25568;DHT22;13455;51.480;7.594;2022-12-07T16:13:38;4.90;99.90
25568;DHT22;13455;51.480;7.594;2022-12-07T16:16:07;4.80;99.90
25568;DHT22;13455;51.480;7.594;2022-12-07T16:18:33;4.80;99.90
25568;DHT22;13455;51.480;7.594;2022-12-07T16:20:59;4.80;99.90
25568;DHT22;13455;51.480;7.594;2022-12-07T16:23:24;4.80;99.90
25568;DHT22;13455;51.480;7.594;2022-12-07T16:25:50;4.80;99.90
25568;DHT22;13455;51.480;7.594;2022-12-07T16:28:16;4.70;99.90
25568;DHT22;13455;51.480;7.594;2022-12-07T16:30:41;4.70;99.90
25568;DHT22;13455;51.480;7.594;2022-12-07T16:33:07;4.70;99.90
25568;DHT22;13455;51.480;7.594;2022-12-07T16:35:32;4.70;99.90
25568;DHT22;13455;51.480;7.594;2022-12-07T16:37:58;4.70;99.90
25568;DHT22;13455;51.480;7.594;2022-12-07T16:40:24;4.70;99.90
25568;DHT22;13455;51.480;7.594;2022-12-07T16:42:49;4.70;99.90
25568;DHT22;13455;51.480;7.594;2022-12-07T16:45:15;4.70;99.90
25568;DHT22;13455;51.480;7.594;2022-12-07T16:47:41;4.70;99.90
25568;DHT22;13455;51.480;7.594;2022-12-07T16:50:07;4.60;99.90
25568;DHT22;13455;51.480;7.594;2022-12-07T16:52:34;4.70;99.90
25568;DHT22;13455;51.480;7.594;2022-12-07T16:54:59;4.70;99.90
25568;DHT22;13455;51.480;7.594;2022-12-07T16:57:25;4.70;99.90
25568;DHT22;13455;51.480;7.594;2022-12-07T16:59:51;4.70;99.90
25568;DHT22;13455;51.480;7.594;2022-12-07T17:02:18;4.70;99.90
25568;DHT22;13455;51.480;7.594;2022-12-07T17:04:43;4.70;99.90
25568;DHT22;13455;51.480;7.594;2022-12-07T17:07:10;4.70;99.90
25568;DHT22;13455;51.480;7.594;2022-12-07T17:12:02;4.70;99.90
25568;DHT22;13455;51.480;7.594;2022-12-07T17:14:28;4.70;99.90
25568;DHT22;13455;51.480;7.594;2022-12-07T17:17:13;4.70;99.90
25568;DHT22;13455;51.480;7.594;2022-12-07T17:19:38;4.60;99.90
25568;DHT22;13455;51.480;7.594;2022-12-07T17:22:04;4.70;99.90
25568;DHT22;13455;51.480;7.594;2022-12-07T17:24:30;4.70;99.90
25568;DHT22;13455;51.480;7.594;2022-12-07T17:29:22;4.70;99.90
25568;DHT22;13455;51.480;7.594;2022-12-07T17:31:48;4.70;99.90
25568;DHT22;13455;51.480;7.594;2022-12-07T17:34:15;4.70;99.90
25568;DHT22;13455;51.480;7.594;2022-12-07T17:39:08;4.70;99.90
25568;DHT22;13455;51.480;7.594;2022-12-07T17:41:35;4.10;99.90
25568;DHT22;13455;51.480;7.594;2022-12-07T17:44:21;4.70;99.90
25568;DHT22;13455;51.480;7.594;2022-12-07T17:46:49;4.60;99.90
25568;DHT22;13455;51.480;7.594;2022-12-07T17:49:15;4.70;99.90
25568;DHT22;13455;51.480;7.594;2022-12-07T17:54:26;4.80;99.90
25568;DHT22;13455;51.480;7.594;2022-12-07T17:56:52;4.70;99.90
25568;DHT22;13455;51.480;7.594;2022-12-07T17:59:17;4.70;99.90
25568;DHT22;13455;51.480;7.594;2022-12-07T18:01:43;4.70;99.90
25568;DHT22;13455;51.480;7.594;2022-12-07T18:09:02;4.90;99.90
25568;DHT22;13455;51.480;7.594;2022-12-07T18:11:28;4.90;99.90
25568;DHT22;13455;51.480;7.594;2022-12-07T18:13:53;4.90;99.90
25568;DHT22;13455;51.480;7.594;2022-12-07T18:16:25;4.80;99.90
25568;DHT22;13455;51.480;7.594;2022-12-07T18:18:52;5.00;99.90
25568;DHT22;13455;51.480;7.594;2022-12-07T18:23:52;4.90;99.90
25568;DHT22;13455;51.480;7.594;2022-12-07T18:28:45;4.50;99.90
25568;DHT22;13455;51.480;7.594;2022-12-07T18:31:11;4.90;99.90
25568;DHT22;13455;51.480;7.594;2022-12-07T18:36:05;4.80;99.90
25568;DHT22;13455;51.480;7.594;2022-12-07T18:46:00;4.60;99.90
25568;DHT22;13455;51.480;7.594;2022-12-07T18:48:25;4.70;99.90
25568;DHT22;13455;51.480;7.594;2022-12-07T18:51:00;4.80;99.90
25568;DHT22;13455;51.480;7.594;2022-12-07T18:53:26;4.70;99.90
25568;DHT22;13455;51.480;7.594;2022-12-07T18:56:03;4.80;99.90
25568;DHT22;13455;51.480;7.594;2022-12-07T18:58:29;4.50;99.90
25568;DHT22;13455;51.480;7.594;2022-12-07T19:00:55;4.50;99.90
25568;DHT22;13455;51.480;7.594;2022-12-07T19:03:21;4.80;99.90
25568;DHT22;13455;51.480;7.594;2022-12-07T19:57:03;4.50;99.90
25568;DHT22;13455;51.480;7.594;2022-12-07T19:59:30;4.50;99.90
25568;DHT22;13455;51.480;7.594;2022-12-07T20:01:56;4.50;99.90
25568;DHT22;13455;51.480;7.594;2022-12-07T20:04:24;4.50;99.90
25568;DHT22;13455;51.480;7.594;2022-12-07T20:06:52;4.60;99.90
25568;DHT22;13455;51.480;7.594;2022-12-07T20:09:19;4.60;99.90
25568;DHT22;13455;51.480;7.594;2022-12-07T20:11:45;4.60;99.90
25568;DHT22;13455;51.480;7.594;2022-12-07T20:14:30;4.50;99.90
25568;DHT22;13455;51.480;7.594;2022-12-07T20:16:56;4.70;99.90
25568;DHT22;13455;51.480;7.594;2022-12-07T20:19:22;4.60;99.90
25568;DHT22;13455;51.480;7.594;2022-12-07T20:24:18;4.60;99.90
25568;DHT22;13455;51.480;7.594;2022-12-07T20:39:02;4.80;99.90
25568;DHT22;13455;51.480;7.594;2022-12-07T20:41:28;4.70;99.90
25568;DHT22;13455;51.480;7.594;2022-12-07T20:49:08;4.70;99.90
25568;DHT22;13455;51.480;7.594;2022-12-07T20:51:34;5.00;99.90
25568;DHT22;13455;51.480;7.594;2022-12-07T20:54:00;4.70;99.90
25568;DHT22;13455;51.480;7.594;2022-12-07T20:56:28;5.00;99.90
25568;DHT22;13455;51.480;7.594;2022-12-07T20:58:55;4.70;99.90
25568;DHT22;13455;51.480;7.594;2022-12-07T21:03:48;4.50;99.90
25568;DHT22;13455;51.480;7.594;2022-12-07T21:06:15;4.50;99.90
25568;DHT22;13455;51.480;7.594;2022-12-07T21:08:49;4.50;99.90
25568;DHT22;13455;51.480;7.594;2022-12-07T21:11:16;4.50;99.90
25568;DHT22;13455;51.480;7.594;2022-12-07T21:13:43;4.50;99.90
25568;DHT22;13455;51.480;7.594;2022-12-07T21:16:11;4.40;99.90
25568;DHT22;13455;51.480;7.594;2022-12-07T21:18:37;4.40;99.90
25568;DHT22;13455;51.480;7.594;2022-12-07T21:21:05;4.40;99.90
25568;DHT22;13455;51.480;7.594;2022-12-07T21:23:31;4.40;99.90
25568;DHT22;13455;51.480;7.594;2022-12-07T21:25:57;4.40;99.90
25568;DHT22;13455;51.480;7.594;2022-12-07T21:28:22;4.60;99.90
25568;DHT22;13455;51.480;7.594;2022-12-07T21:30:48;4.40;99.90
25568;DHT22;13455;51.480;7.594;2022-12-07T21:33:14;4.40;99.90
25568;DHT22;13455;51.480;7.594;2022-12-07T21:35:39;4.40;99.90
25568;DHT22;13455;51.480;7.594;2022-12-07T21:38:05;4.40;99.90
25568;DHT22;13455;51.480;7.594;2022-12-07T21:40:31;4.40;99.90
25568;DHT22;13455;51.480;7.594;2022-12-07T21:42:56;4.40;99.90
25568;DHT22;13455;51.480;7.594;2022-12-07T21:45:22;4.40;99.90
25568;DHT22;13455;51.480;7.594;2022-12-07T21:47:47;4.30;99.90
25568;DHT22;13455;51.480;7.594;2022-12-07T21:50:13;4.40;99.90
25568;DHT22;13455;51.480;7.594;2022-12-07T21:52:38;4.40;99.90
25568;DHT22;13455;51.480;7.594;2022-12-07T21:55:04;4.40;99.90
25568;DHT22;13455;51.480;7.594;2022-12-07T21:57:33;4.40;99.90
25568;DHT22;13455;51.480;7.594;2022-12-07T21:59:58;4.30;99.90
25568;DHT22;13455;51.480;7.594;2022-12-07T22:02:24;4.40;99.90
25568;DHT22;13455;51.480;7.594;2022-12-07T22:04:50;4.40;99.90
25568;DHT22;13455;51.480;7.594;2022-12-07T22:07:15;4.40;99.90
25568;DHT22;13455;51.480;7.594;2022-12-07T22:09:41;4.40;99.90
25568;DHT22;13455;51.480;7.594;2022-12-07T22:12:07;4.40;99.90
25568;DHT22;13455;51.480;7.594;2022-12-07T22:14:32;4.40;99.90
25568;DHT22;13455;51.480;7.594;2022-12-07T22:17:16;4.40;99.90
25568;DHT22;13455;51.480;7.594;2022-12-07T22:19:42;4.40;99.90
25568;DHT22;13455;51.480;7.594;2022-12-07T22:22:12;4.40;99.90
25568;DHT22;13455;51.480;7.594;2022-12-07T22:24:39;4.40;99.90
25568;DHT22;13455;51.480;7.594;2022-12-07T22:27:05;4.40;99.90
25568;DHT22;13455;51.480;7.594;2022-12-07T22:29:30;4.40;99.90
25568;DHT22;13455;51.480;7.594;2022-12-07T22:31:56;4.40;99.90
25568;DHT22;13455;51.480;7.594;2022-12-07T22:34:21;4.40;99.90
25568;DHT22;13455;51.480;7.594;2022-12-07T22:36:47;4.40;99.90
25568;DHT22;13455;51.480;7.594;2022-12-07T22:39:13;4.40;99.90
25568;DHT22;13455;51.480;7.594;2022-12-07T22:44:06;4.40;99.90
25568;DHT22;13455;51.480;7.594;2022-12-07T22:46:32;4.40;99.90
25568;DHT22;13455;51.480;7.594;2022-12-07T22:48:58;4.40;99.90
25568;DHT22;13455;51.480;7.594;2022-12-07T22:51:24;4.40;99.90
25568;DHT22;13455;51.480;7.594;2022-12-07T22:53:51;4.40;99.90
25568;DHT22;13455;51.480;7.594;2022-12-07T22:56:17;4.30;99.90
25568;DHT22;13455;51.480;7.594;2022-12-07T22:58:43;4.40;99.90
25568;DHT22;13455;51.480;7.594;2022-12-07T23:01:09;4.30;99.90
25568;DHT22;13455;51.480;7.594;2022-12-07T23:03:35;4.30;99.90
25568;DHT22;13455;51.480;7.594;2022-12-07T23:06:06;4.30;99.90
25568;DHT22;13455;51.480;7.594;2022-12-07T23:08:32;4.30;99.90
25568;DHT22;13455;51.480;7.594;2022-12-07T23:10:58;4.30;99.90
25568;DHT22;13455;51.480;7.594;2022-12-07T23:13:24;4.30;99.90
25568;DHT22;13455;51.480;7.594;2022-12-07T23:16:14;4.30;99.90
25568;DHT22;13455;51.480;7.594;2022-12-07T23:18:41;4.30;99.90
25568;DHT22;13455;51.480;7.594;2022-12-07T23:21:07;5.10;99.90
25568;DHT22;13455;51.480;7.594;2022-12-07T23:23:33;4.30;99.90
25568;DHT22;13455;51.480;7.594;2022-12-07T23:26:07;4.30;99.90
25568;DHT22;13455;51.480;7.594;2022-12-07T23:28:33;4.30;99.90
25568;DHT22;13455;51.480;7.594;2022-12-07T23:31:15;4.30;99.90
25568;DHT22;13455;51.480;7.594;2022-12-07T23:33:42;4.30;99.90
25568;DHT22;13455;51.480;7.594;2022-12-07T23:36:21;4.30;99.90
25568;DHT22;13455;51.480;7.594;2022-12-07T23:38:49;4.20;99.90
25568;DHT22;13455;51.480;7.594;2022-12-07T23:41:16;4.20;99.90
25568;DHT22;13455;51.480;7.594;2022-12-07T23:43:43;4.20;99.90
25568;DHT22;13455;51.480;7.594;2022-12-07T23:46:11;4.20;99.90
25568;DHT22;13455;51.480;7.594;2022-12-07T23:48:38;4.40;99.90
25568;DHT22;13455;51.480;7.594;2022-12-07T23:51:05;4.20;99.90
25568;DHT22;13455;51.480;7.594;2022-12-07T23:53:39;4.20;99.90
25568;DHT22;13455;51.480;7.594;2022-12-07T23:56:06;4.20;99.90
25568;DHT22;13455;51.480;7.594;2022-12-07T23:58:32;4.20;99.90
